Lakeview, North Carolina
Current Conditions -  °F | °C
As of 8:55 PM on Saturday 20 Dec 2014 (Local Time) from KSOP Reporting Station
Overcast Overcast  
Wind Chill: 37°   Ceiling: 3200
Heat Index: 37°   Visibility: 10mi
Dew Point: 34°   Wind: 3mph
Humidity: 87%   Direction: 90°E
Pressure: 30.27"   Gusts: NA
Location:  35.24°N, 79.31°W
Report Text: KSOP 210155Z AUTO 09003KT 10SM BKN032 OVC065 03/01 A3027 RMK AO1
Loading
Personal Weather Stations






























Interactive Weather Map New forecast layout! Learn more

10-Day Weather Forecast

Advertisements
Track Severe Weather on mobile